Главная страница
METAR-TAF:

METAR-TAF

Аэропорты :

Гардермуэн

Осло, Норвегия

широта: 60-12N, долгота: 011-05E, высота над уровнем моря: 208 м

Текущие метеонаблюдения

Эта сводка был подготовлена 27 минут назад, в 22:50 UTC
Штиль
Температура -6°C
Влажность 93%
Давление 1022 hPa
Видимость 10 км и более
Рассеянная облачность на высоте 2700 фута

METAR: ENGM 182250Z 00000KT 9999 BKN027 M06/M07 Q1022

Время: 00:17 (23:17 UTC)

Прогноз

Прогноз действительный с 18-го 22 UTC до 19-го 18 UTC
Ветер 3 Узел переменных направлений
Видимость 10 км и более
Отдельные облака на высоте 700 фута
Рассеянная облачность на высоте 1200 фута
Вероятность 40%
С 18-го 22 UTC до 19-го 02 UTC
небольшая облачность на высоте 700 фута
Рассеянная облачность на высоте 2500 фута
временами
С 19-го 03 UTC до 19-го 18 UTC
Видимость: 3000 м
Рассеянная облачность на высоте 400 фута
небольшой снег

TAF: ENGM 1822/1918 VRB03KT 9999 SCT007 BKN012 PROB40 1822/1902 FEW007 BKN025 TEMPO 1903/1918 3000 -SN BKN004

Метеонаблюдения и прогнозы для более 4000 аэропортов (сводки METAR и TAF).

Имеющиеся станции представлены на карте желтыми и красными точками.

Чтобы увидеть название станции, наведите на нее мышь.

Затем щелкните, чтобы увидеть метеонаблюдения и метеопрогнозы.

Управление картой: чтобы увеличить масштаб, щелкните зеленые кнопки с черным крестиком; чтобы уменьшить масштаб, щелкните зеленую кнопку с тире; для просмотра соседних карт щелкайте зеленые стрелки.


METAR-TAF: